Time;durP1;ratioP1;P1;durP2;ratioP2;P2;SDS_P1;SDS_P2;PMS_P1;PMS_P2;Temp;Humidity;BMP_temperature;BMP_pressure;BME280_temperature;BME280_humidity;BME280_pressure;Samples;Min_cycle;Max_cycle;Signal;HPM_P1;HPM_P2
2021/01/12 00:02:00;;;;;;;7.50;6.57;;;8.20;83.30;;;;;;5083808;28;20020;-46
2021/01/12 00:04:26;;;;;;;7.57;6.50;;;8.20;83.30;;;;;;5082545;28;20591;-46
2021/01/12 00:06:53;;;;;;;8.48;6.75;;;8.20;83.30;;;;;;5082335;28;20037;-46
2021/01/12 00:09:19;;;;;;;9.90;7.70;;;8.20;83.30;;;;;;5082343;28;20032;-46
2021/01/12 00:11:45;;;;;;;7.88;6.97;;;8.20;83.30;;;;;;5086619;28;20036;-46
2021/01/12 00:16:56;;;;;;;9.13;7.28;;;8.20;83.30;;;;;;5102488;28;20050;-45
2021/01/12 00:19:22;;;;;;;8.02;6.68;;;8.20;83.20;;;;;;5101644;28;20020;-46
2021/01/12 00:21:48;;;;;;;8.33;7.10;;;8.20;83.30;;;;;;5087965;28;20433;-45
2021/01/12 00:24:15;;;;;;;8.48;7.40;;;8.20;83.30;;;;;;5086006;28;20021;-45
2021/01/12 00:26:41;;;;;;;9.25;7.10;;;8.20;83.30;;;;;;5085604;28;20124;-45
2021/01/12 00:29:07;;;;;;;9.43;7.65;;;8.20;83.30;;;;;;5084401;28;20477;-46
2021/01/12 00:31:38;;;;;;;8.52;7.13;;;8.20;83.30;;;;;;5085515;28;20047;-45
2021/01/12 00:34:04;;;;;;;9.68;7.03;;;8.20;83.30;;;;;;5085781;28;20056;-45
2021/01/12 00:36:30;;;;;;;7.95;6.60;;;8.20;83.30;;;;;;5085654;28;20028;-45
2021/01/12 00:38:57;;;;;;;7.47;6.40;;;8.20;83.30;;;;;;5085450;28;20024;-45
2021/01/12 00:41:23;;;;;;;8.88;7.47;;;8.20;83.30;;;;;;5085884;28;20038;-45
2021/01/12 00:43:49;;;;;;;9.63;7.90;;;8.20;83.30;;;;;;5085568;28;20025;-45
2021/01/12 00:46:16;;;;;;;8.65;7.03;;;8.20;83.30;;;;;;5084993;28;20033;-45
2021/01/12 00:48:42;;;;;;;8.50;7.07;;;8.20;83.30;;;;;;5085095;28;20499;-45
2021/01/12 00:51:08;;;;;;;9.10;7.40;;;8.20;83.30;;;;;;5084819;28;20028;-45
2021/01/12 00:53:34;;;;;;;8.23;6.60;;;8.20;83.30;;;;;;5085193;28;20048;-45
2021/01/12 00:56:00;;;;;;;7.65;6.85;;;8.20;83.30;;;;;;5085090;28;20068;-45
2021/01/12 00:58:26;;;;;;;6.65;5.30;;;8.20;83.30;;;;;;5085274;28;20092;-46
2021/01/12 01:00:53;;;;;;;6.10;5.22;;;8.20;83.20;;;;;;5084895;28;20051;-46
2021/01/12 01:03:19;;;;;;;6.13;5.22;;;8.20;83.20;;;;;;5085033;28;20036;-46
2021/01/12 01:05:45;;;;;;;7.38;5.72;;;8.20;83.20;;;;;;5085217;28;20032;-46
2021/01/12 01:08:11;;;;;;;8.55;5.95;;;8.20;83.30;;;;;;5084993;28;20028;-46
2021/01/12 01:10:38;;;;;;;6.18;5.00;;;8.20;83.30;;;;;;5085449;28;20044;-46
2021/01/12 01:13:04;;;;;;;9.60;5.90;;;8.20;83.30;;;;;;5099827;28;20032;-46
2021/01/12 01:15:30;;;;;;;10.25;7.75;;;8.20;83.30;;;;;;5105173;28;20027;-46
2021/01/12 01:17:56;;;;;;;9.05;7.65;;;8.20;83.20;;;;;;5105035;28;20030;-46
2021/01/12 01:20:22;;;;;;;6.55;4.70;;;8.20;83.20;;;;;;5104837;28;20027;-46
2021/01/12 01:22:48;;;;;;;4.95;4.45;;;8.20;83.30;;;;;;5105093;28;20036;-46
2021/01/12 01:25:15;;;;;;;7.50;5.88;;;8.20;83.30;;;;;;5104888;28;20024;-46
2021/01/12 01:27:41;;;;;;;6.63;5.47;;;8.20;83.30;;;;;;5104759;28;20491;-46
2021/01/12 01:30:08;;;;;;;5.85;5.18;;;8.20;83.20;;;;;;5104943;28;20024;-46
2021/01/12 01:32:34;;;;;;;8.13;6.80;;;8.20;83.20;;;;;;5104311;28;20092;-46
2021/01/12 01:35:00;;;;;;;7.88;6.55;;;8.20;83.20;;;;;;5104850;28;20032;-46
2021/01/12 01:37:26;;;;;;;7.78;6.80;;;8.20;83.20;;;;;;5104499;28;20588;-46
2021/01/12 01:39:52;;;;;;;9.38;6.20;;;8.20;83.20;;;;;;5104527;28;20027;-46
2021/01/12 01:42:18;;;;;;;8.23;6.55;;;8.20;83.30;;;;;;5103578;28;20036;-46
2021/01/12 01:44:44;;;;;;;8.38;7.18;;;8.20;83.20;;;;;;5103250;28;20024;-46
2021/01/12 01:47:11;;;;;;;9.20;7.75;;;8.20;83.30;;;;;;5104501;28;20036;-46
2021/01/12 01:49:37;;;;;;;7.85;6.80;;;8.20;83.20;;;;;;5104636;28;20026;-46
2021/01/12 01:52:03;;;;;;;9.52;7.25;;;8.20;83.20;;;;;;5092851;28;20396;-46
2021/01/12 01:54:29;;;;;;;8.98;6.78;;;8.20;83.20;;;;;;5066221;28;20028;-46
2021/01/12 01:56:55;;;;;;;9.45;6.95;;;8.20;83.20;;;;;;5083518;28;20133;-46
2021/01/12 01:59:22;;;;;;;8.45;7.10;;;8.20;84.00;;;;;;5086862;28;20025;-46
2021/01/12 02:01:48;;;;;;;8.65;7.47;;;8.20;83.20;;;;;;5083790;28;20035;-46
2021/01/12 02:04:34;;;;;;;8.38;7.38;;;8.20;83.30;;;;;;5082502;28;20060;-46
2021/01/12 02:07:00;;;;;;;8.40;6.80;;;8.20;83.20;;;;;;5082575;28;20136;-46
2021/01/12 02:09:49;;;;;;;9.65;7.88;;;8.20;83.20;;;;;;5082420;28;20025;-46
2021/01/12 02:12:43;;;;;;;9.57;7.90;;;8.20;83.30;;;;;;5092272;28;20074;-46
2021/01/12 02:15:09;;;;;;;9.35;7.25;;;8.20;83.20;;;;;;5060925;28;20048;-46
2021/01/12 02:17:35;;;;;;;8.75;7.10;;;8.20;83.20;;;;;;5044267;28;20145;-46
2021/01/12 02:20:02;;;;;;;10.18;7.47;;;8.20;83.20;;;;;;5044384;28;20025;-46
2021/01/12 02:22:28;;;;;;;8.23;7.30;;;8.20;83.20;;;;;;5060808;28;20029;-45
2021/01/12 02:24:54;;;;;;;8.90;7.35;;;8.10;83.20;;;;;;5044135;28;20024;-45
2021/01/12 02:27:21;;;;;;;9.30;7.25;;;8.20;83.20;;;;;;5043881;28;20052;-45
2021/01/12 02:29:49;;;;;;;9.20;7.75;;;8.20;83.30;;;;;;5056918;28;20110;-45
2021/01/12 02:32:19;;;;;;;9.85;8.00;;;8.20;83.30;;;;;;5060293;28;20040;-45
2021/01/12 02:34:45;;;;;;;9.55;7.25;;;8.10;83.20;;;;;;5043949;28;20025;-45
2021/01/12 02:37:20;;;;;;;8.90;7.57;;;8.10;83.20;;;;;;5060652;28;20021;-45
2021/01/12 02:39:57;;;;;;;9.80;8.02;;;8.10;83.20;;;;;;5043908;28;20040;-46
2021/01/12 02:42:24;;;;;;;8.43;7.28;;;8.20;83.30;;;;;;5059400;28;20029;-46
2021/01/12 02:44:50;;;;;;;8.60;7.23;;;8.10;83.30;;;;;;5060243;28;20041;-46
2021/01/12 02:47:16;;;;;;;9.40;7.07;;;8.10;83.20;;;;;;5060391;28;20329;-45
2021/01/12 02:49:43;;;;;;;8.95;7.47;;;8.10;83.30;;;;;;5060473;28;20025;-45
2021/01/12 02:52:13;;;;;;;10.25;7.50;;;8.20;83.30;;;;;;5085225;28;20075;-45
2021/01/12 02:54:41;;;;;;;10.23;7.47;;;8.10;83.30;;;;;;5103225;28;20040;-46
2021/01/12 02:57:07;;;;;;;8.90;7.35;;;8.10;83.30;;;;;;5084616;28;20147;-45
2021/01/12 02:59:33;;;;;;;9.60;7.37;;;8.10;83.20;;;;;;5081832;28;20028;-45
2021/01/12 03:01:59;;;;;;;9.90;7.72;;;8.10;83.30;;;;;;5082788;28;20029;-45
2021/01/12 03:04:25;;;;;;;8.20;7.07;;;8.10;83.30;;;;;;5083008;28;20087;-45
2021/01/12 03:06:52;;;;;;;9.05;7.60;;;8.10;83.30;;;;;;5082685;28;20033;-46
2021/01/12 03:09:18;;;;;;;10.30;7.35;;;8.10;83.30;;;;;;5083014;28;20033;-45
2021/01/12 03:11:50;;;;;;;8.90;7.18;;;8.10;83.30;;;;;;5086198;28;20059;-45
2021/01/12 03:14:16;;;;;;;9.63;7.90;;;8.10;83.30;;;;;;5103283;28;20035;-45
2021/01/12 03:16:42;;;;;;;9.20;7.35;;;8.10;83.30;;;;;;5103113;28;20028;-45
2021/01/12 03:19:08;;;;;;;8.98;7.10;;;8.10;83.30;;;;;;5103060;28;20028;-45
2021/01/12 03:21:34;;;;;;;8.13;7.32;;;8.10;83.30;;;;;;5103306;28;20205;-45
2021/01/12 03:24:00;;;;;;;8.45;7.00;;;8.10;83.30;;;;;;5102930;28;20042;-45
2021/01/12 03:26:27;;;;;;;8.70;7.72;;;8.10;83.30;;;;;;5102930;28;20031;-45
2021/01/12 03:28:53;;;;;;;8.57;7.57;;;8.10;83.30;;;;;;5103036;28;20069;-45
2021/01/12 03:31:19;;;;;;;8.20;7.03;;;8.10;84.00;;;;;;5103060;28;20026;-45
2021/01/12 03:33:45;;;;;;;9.25;7.53;;;8.10;83.30;;;;;;5102704;28;20077;-45
2021/01/12 03:36:11;;;;;;;8.57;7.13;;;8.20;83.40;;;;;;5103179;28;20020;-45
2021/01/12 03:38:37;;;;;;;8.02;6.97;;;8.10;83.40;;;;;;5102859;28;20042;-45
2021/01/12 03:41:04;;;;;;;9.60;7.80;;;8.10;83.30;;;;;;5101370;28;20155;-45
2021/01/12 03:43:30;;;;;;;9.77;7.75;;;8.10;83.30;;;;;;5101204;28;20024;-45
2021/01/12 03:45:56;;;;;;;9.85;7.82;;;8.10;83.30;;;;;;5102831;28;20029;-45
2021/01/12 03:48:23;;;;;;;8.75;7.45;;;8.10;83.30;;;;;;5101063;28;20096;-45
2021/01/12 03:50:49;;;;;;;9.02;7.28;;;8.10;83.30;;;;;;5096017;28;20024;-45
2021/01/12 03:53:18;;;;;;;8.40;7.32;;;8.10;83.40;;;;;;5082425;28;20028;-45
2021/01/12 03:55:44;;;;;;;9.55;7.78;;;8.10;83.40;;;;;;5084163;28;20053;-45
2021/01/12 03:58:11;;;;;;;9.23;7.53;;;8.10;84.10;;;;;;5084713;28;20451;-45
2021/01/12 04:00:37;;;;;;;9.30;7.38;;;8.10;83.40;;;;;;5086311;28;20020;-45
2021/01/12 04:03:03;;;;;;;8.32;7.28;;;8.10;83.40;;;;;;5085919;28;20032;-45
2021/01/12 04:05:29;;;;;;;9.57;8.02;;;8.10;83.40;;;;;;5084849;28;20025;-46
2021/01/12 04:07:56;;;;;;;9.30;7.25;;;8.10;83.40;;;;;;5088898;28;20063;-45
2021/01/12 04:10:22;;;;;;;8.98;7.72;;;8.10;83.40;;;;;;5086510;28;20025;-45
2021/01/12 04:12:49;;;;;;;7.68;6.28;;;8.10;83.40;;;;;;5098646;28;20091;-45
2021/01/12 04:15:15;;;;;;;9.50;7.63;;;8.10;83.40;;;;;;5106489;28;20027;-45
2021/01/12 04:17:41;;;;;;;8.90;7.53;;;8.10;83.40;;;;;;5106167;28;20031;-46
2021/01/12 04:20:08;;;;;;;8.35;7.43;;;8.10;83.40;;;;;;5106287;28;20020;-46
2021/01/12 04:22:35;;;;;;;9.68;8.02;;;8.10;83.40;;;;;;5106316;28;20024;-46
2021/01/12 04:25:03;;;;;;;8.82;7.30;;;8.10;83.40;;;;;;5103686;28;20139;-46
2021/01/12 04:27:29;;;;;;;8.40;7.25;;;8.10;83.40;;;;;;5104955;28;20071;-46
2021/01/12 04:29:55;;;;;;;8.27;7.25;;;8.10;83.40;;;;;;5106075;28;20477;-45
2021/01/12 04:32:21;;;;;;;8.60;7.28;;;8.10;83.40;;;;;;5105980;28;20047;-45
2021/01/12 04:34:47;;;;;;;8.52;7.63;;;8.10;83.40;;;;;;5105830;28;20665;-45
2021/01/12 04:37:14;;;;;;;8.50;7.22;;;8.10;83.40;;;;;;5105942;28;20083;-45
2021/01/12 04:39:40;;;;;;;9.63;7.35;;;8.10;83.40;;;;;;5105977;28;20032;-45
2021/01/12 04:42:06;;;;;;;8.65;7.30;;;8.10;83.40;;;;;;5105045;28;20020;-45
2021/01/12 04:44:32;;;;;;;8.32;7.32;;;8.10;84.10;;;;;;5105541;28;20091;-46
2021/01/12 04:46:58;;;;;;;7.90;7.05;;;8.10;83.40;;;;;;5105618;28;20515;-46
2021/01/12 04:49:25;;;;;;;8.43;7.07;;;8.10;83.40;;;;;;5105684;28;20085;-45
2021/01/12 04:51:51;;;;;;;8.85;7.50;;;8.10;83.40;;;;;;5105453;28;20488;-45
2021/01/12 04:54:17;;;;;;;8.30;7.03;;;8.10;83.40;;;;;;5095618;28;20032;-45
2021/01/12 04:56:43;;;;;;;8.60;7.10;;;8.10;83.40;;;;;;5085073;28;20036;-45
2021/01/12 04:59:09;;;;;;;9.80;7.55;;;8.10;83.40;;;;;;5085193;28;20032;-45
2021/01/12 05:01:35;;;;;;;9.48;7.00;;;8.10;83.40;;;;;;5085358;28;20028;-46
2021/01/12 05:04:05;;;;;;;8.68;7.55;;;8.10;83.40;;;;;;5083451;28;20021;-45
2021/01/12 05:06:31;;;;;;;10.40;7.53;;;8.10;83.40;;;;;;5084546;28;20024;-45
2021/01/12 05:08:57;;;;;;;8.27;7.32;;;8.10;83.40;;;;;;5084851;28;20037;-45
2021/01/12 05:11:34;;;;;;;8.25;6.90;;;8.10;83.40;;;;;;5086584;28;20024;-45
2021/01/12 05:14:04;;;;;;;8.68;7.28;;;8.10;83.40;;;;;;5104863;28;20028;-45
2021/01/12 05:16:30;;;;;;;9.52;7.55;;;8.10;83.40;;;;;;5105195;28;20028;-45
2021/01/12 05:18:57;;;;;;;8.50;7.35;;;8.10;83.40;;;;;;5105060;28;20069;-45
2021/01/12 05:21:26;;;;;;;9.57;7.50;;;8.10;83.40;;;;;;5086845;28;20422;-45
2021/01/12 05:24:01;;;;;;;9.30;7.47;;;8.10;83.50;;;;;;5104590;28;20484;-45
2021/01/12 05:26:40;;;;;;;9.70;7.63;;;8.10;83.50;;;;;;5104917;28;20031;-45
2021/01/12 05:29:07;;;;;;;8.88;7.30;;;8.10;83.50;;;;;;5104760;28;20027;-45
2021/01/12 05:31:37;;;;;;;8.73;7.28;;;8.10;83.50;;;;;;5104998;28;20032;-45
2021/01/12 05:34:05;;;;;;;8.13;7.22;;;8.10;83.60;;;;;;5104364;28;20063;-45
2021/01/12 05:36:32;;;;;;;7.95;7.07;;;8.10;83.50;;;;;;5104909;28;20034;-45
2021/01/12 05:38:59;;;;;;;8.40;7.15;;;8.10;83.50;;;;;;5103455;28;20373;-45
2021/01/12 05:41:26;;;;;;;11.18;7.38;;;8.10;83.50;;;;;;5100692;28;20503;-44
2021/01/12 05:43:52;;;;;;;8.60;7.07;;;8.10;83.50;;;;;;5104266;28;20024;-45
2021/01/12 05:46:19;;;;;;;8.27;6.70;;;8.10;83.50;;;;;;5104559;28;20081;-45
2021/01/12 05:48:45;;;;;;;10.30;8.45;;;8.10;83.50;;;;;;5104619;28;20677;-45
2021/01/12 05:51:13;;;;;;;9.05;7.13;;;8.10;83.50;;;;;;5093985;28;20037;-45
2021/01/12 05:53:45;;;;;;;8.50;7.38;;;8.10;83.50;;;;;;5083991;28;20036;-44
2021/01/12 05:56:32;;;;;;;8.70;7.43;;;8.10;83.50;;;;;;5083949;28;20074;-45
2021/01/12 05:58:59;;;;;;;9.55;7.53;;;8.10;83.50;;;;;;5084137;28;20377;-45
2021/01/12 06:01:31;;;;;;;;;;;8.10;83.50;;;;;;5084435;28;20029;-45
2021/01/12 06:03:58;;;;;;;8.10;6.78;;;8.10;83.50;;;;;;5116155;28;20327;-45
2021/01/12 06:06:24;;;;;;;8.90;7.18;;;8.10;83.50;;;;;;5082523;28;20028;-45
2021/01/12 06:08:50;;;;;;;7.97;7.15;;;8.10;83.50;;;;;;5082514;28;20052;-45
2021/01/12 06:11:18;;;;;;;10.25;7.68;;;8.10;83.50;;;;;;5085552;28;20528;-45
2021/01/12 06:13:54;;;;;;;8.90;7.38;;;8.10;83.50;;;;;;5103580;28;20036;-45
2021/01/12 06:16:22;;;;;;;9.27;7.30;;;8.10;83.50;;;;;;5104072;28;20024;-45
2021/01/12 06:19:21;;;;;;;8.77;7.28;;;8.10;83.50;;;;;;5103099;28;20409;-45
2021/01/12 06:21:56;;;;;;;8.13;7.32;;;8.10;83.50;;;;;;5102359;28;20028;-45
2021/01/12 06:24:35;;;;;;;7.55;6.75;;;8.10;83.50;;;;;;5103439;28;20089;-45
2021/01/12 06:27:01;;;;;;;8.98;7.05;;;8.10;83.50;;;;;;5103781;28;20115;-45
2021/01/12 06:29:31;;;;;;;9.35;7.22;;;8.10;83.50;;;;;;5103964;28;20059;-45
2021/01/12 06:31:57;;;;;;;8.63;7.45;;;8.10;84.20;;;;;;5098603;28;20032;-46
2021/01/12 06:34:24;;;;;;;8.43;6.97;;;8.10;83.50;;;;;;5083128;28;20568;-44
2021/01/12 06:36:52;;;;;;;8.15;7.10;;;8.10;83.50;;;;;;5083322;28;20039;-44
2021/01/12 06:39:22;;;;;;;8.27;6.93;;;8.10;83.50;;;;;;5083299;28;20029;-44
2021/01/12 06:41:49;;;;;;;8.88;7.00;;;8.10;83.60;;;;;;5083953;28;20020;-45
2021/01/12 06:44:25;;;;;;;8.40;7.07;;;8.10;83.50;;;;;;5083029;28;20032;-45
2021/01/12 06:46:54;;;;;;;8.57;7.35;;;8.10;83.60;;;;;;5083228;28;20040;-45
2021/01/12 06:49:22;;;;;;;8.15;6.88;;;8.10;83.60;;;;;;5083029;28;20548;-45
2021/01/12 06:52:07;;;;;;;8.68;6.78;;;8.10;83.60;;;;;;5083090;28;20048;-45
2021/01/12 06:54:47;;;;;;;7.88;6.57;;;8.10;83.50;;;;;;5062882;28;20031;-45
2021/01/12 06:57:21;;;;;;;8.43;7.00;;;8.10;83.50;;;;;;5062861;28;20082;-45
2021/01/12 06:59:52;;;;;;;8.13;7.00;;;8.10;83.60;;;;;;5062829;28;20021;-45
2021/01/12 07:02:24;;;;;;;8.65;6.85;;;8.10;83.60;;;;;;5063047;28;20037;-44
2021/01/12 07:05:09;;;;;;;7.95;7.05;;;8.10;83.60;;;;;;5062529;28;20036;-45
2021/01/12 07:07:39;;;;;;;8.30;7.00;;;8.10;83.60;;;;;;5062912;28;20044;-44
2021/01/12 07:10:07;;;;;;;7.60;6.80;;;8.10;83.60;;;;;;5064472;28;20021;-44
2021/01/12 07:12:34;;;;;;;9.20;7.32;;;8.10;83.70;;;;;;5093821;28;20024;-45
2021/01/12 07:15:06;;;;;;;8.43;6.83;;;8.10;83.60;;;;;;5103195;28;20028;-44
2021/01/12 07:17:53;;;;;;;8.27;6.78;;;8.10;83.70;;;;;;5103227;28;20036;-44
2021/01/12 07:20:22;;;;;;;10.05;6.93;;;8.10;83.60;;;;;;5102591;28;20442;-44
2021/01/12 07:22:54;;;;;;;8.90;7.10;;;8.10;83.60;;;;;;5103182;28;20032;-45
2021/01/12 07:25:22;;;;;;;7.68;6.55;;;8.10;83.60;;;;;;5102876;28;20127;-44
2021/01/12 07:28:06;;;;;;;10.20;7.43;;;8.10;83.60;;;;;;5102897;28;20060;-45
2021/01/12 07:30:33;;;;;;;7.60;6.80;;;8.10;83.60;;;;;;5104877;28;20016;-45
2021/01/12 07:33:02;;;;;;;7.85;6.57;;;8.10;83.60;;;;;;5106902;28;20048;-44
2021/01/12 07:35:28;;;;;;;8.25;7.25;;;8.10;83.60;;;;;;5106889;28;20024;-45
2021/01/12 07:37:54;;;;;;;8.23;7.22;;;8.10;83.60;;;;;;5107127;28;20058;-44
2021/01/12 07:40:20;;;;;;;8.40;7.07;;;8.10;83.60;;;;;;5105016;28;20025;-45
2021/01/12 07:42:57;;;;;;;8.70;7.40;;;8.10;83.70;;;;;;5106958;28;20097;-45
2021/01/12 07:45:27;;;;;;;8.20;7.15;;;8.10;83.60;;;;;;5106913;28;20034;-44
2021/01/12 07:47:55;;;;;;;9.00;7.13;;;8.10;83.60;;;;;;5106811;28;20104;-44
2021/01/12 07:50:21;;;;;;;8.48;7.05;;;8.10;83.60;;;;;;5102565;28;20034;-45
2021/01/12 07:52:48;;;;;;;9.05;7.30;;;8.10;83.70;;;;;;5086406;28;20081;-45
2021/01/12 07:55:14;;;;;;;7.63;6.55;;;8.10;83.70;;;;;;5085993;28;20025;-44
2021/01/12 07:57:40;;;;;;;8.43;7.15;;;8.10;83.60;;;;;;5086520;28;20139;-45
2021/01/12 08:00:08;;;;;;;8.60;7.03;;;8.10;83.60;;;;;;5086211;28;20029;-45
2021/01/12 08:02:34;;;;;;;;;;;8.10;83.60;;;;;;5086733;28;20025;-45
2021/01/12 08:05:03;;;;;;;7.45;6.03;;;8.00;83.60;;;;;;5118512;28;19947;-45
2021/01/12 08:07:29;;;;;;;8.18;6.57;;;8.10;83.70;;;;;;5086115;28;20037;-45
2021/01/12 08:09:56;;;;;;;7.90;6.68;;;8.10;83.70;;;;;;5085973;28;20489;-45
2021/01/12 08:12:22;;;;;;;7.10;6.32;;;8.00;83.60;;;;;;5096048;28;20096;-45
2021/01/12 08:14:49;;;;;;;8.27;7.37;;;8.10;83.60;;;;;;5092249;28;20050;-45
2021/01/12 08:17:21;;;;;;;7.75;6.78;;;8.10;83.60;;;;;;5086057;28;20040;-45
2021/01/12 08:19:48;;;;;;;7.05;6.35;;;8.10;83.60;;;;;;5086021;28;20027;-45
2021/01/12 08:22:17;;;;;;;8.45;7.00;;;8.10;83.60;;;;;;5085962;28;20035;-45
2021/01/12 08:24:47;;;;;;;7.50;6.45;;;8.00;83.60;;;;;;5085738;28;20117;-46
2021/01/12 08:27:22;;;;;;;7.80;6.68;;;8.10;83.60;;;;;;5084310;28;20038;-45
2021/01/12 08:29:48;;;;;;;7.65;6.38;;;8.00;83.70;;;;;;5085724;28;20051;-46
2021/01/12 08:32:17;;;;;;;8.52;6.72;;;8.00;83.60;;;;;;5085710;28;20024;-46
2021/01/12 08:35:06;;;;;;;8.07;6.65;;;8.10;83.70;;;;;;5084284;28;20028;-46
2021/01/12 08:37:38;;;;;;;7.22;6.13;;;8.00;83.60;;;;;;5069115;28;20032;-45
2021/01/12 08:40:08;;;;;;;8.35;7.00;;;8.10;83.70;;;;;;5086914;28;20033;-46
2021/01/12 08:42:38;;;;;;;8.32;7.00;;;8.00;83.70;;;;;;5104735;28;20075;-46
2021/01/12 08:45:25;;;;;;;7.68;6.65;;;8.00;83.60;;;;;;5104125;28;20028;-45
2021/01/12 08:47:53;;;;;;;7.72;6.45;;;8.00;83.70;;;;;;5105674;28;20143;-46
2021/01/12 08:50:21;;;;;;;7.93;6.82;;;8.10;83.70;;;;;;5104109;28;20016;-45
2021/01/12 08:52:50;;;;;;;9.02;7.15;;;8.00;83.70;;;;;;5105609;28;20551;-45
2021/01/12 08:55:20;;;;;;;7.97;6.55;;;8.10;83.80;;;;;;5105382;28;20028;-46
2021/01/12 08:57:59;;;;;;;8.52;6.78;;;8.10;83.70;;;;;;5105705;28;20043;-45
2021/01/12 09:00:30;;;;;;;7.43;6.65;;;8.10;83.70;;;;;;5103170;28;20039;-45
2021/01/12 09:02:57;;;;;;;8.43;6.80;;;8.00;83.70;;;;;;5085186;28;20116;-45
2021/01/12 09:05:23;;;;;;;7.95;6.55;;;8.10;83.70;;;;;;5084614;28;20025;-45
2021/01/12 09:08:09;;;;;;;6.35;4.97;;;8.00;83.70;;;;;;5085178;28;20044;-45
2021/01/12 09:10:38;;;;;;;7.43;6.40;;;8.10;83.70;;;;;;5085461;28;20052;-46
2021/01/12 09:13:04;;;;;;;8.45;6.85;;;8.10;83.70;;;;;;5098830;28;20039;-45
2021/01/12 09:15:38;;;;;;;8.35;6.85;;;8.00;83.70;;;;;;5104885;28;20024;-45
2021/01/12 09:18:09;;;;;;;8.70;6.55;;;8.10;83.80;;;;;;5104928;28;20024;-48
2021/01/12 09:20:37;;;;;;;8.82;6.93;;;8.10;83.70;;;;;;5105125;28;20038;-45
2021/01/12 09:23:10;;;;;;;8.35;6.90;;;8.00;83.70;;;;;;5105119;28;20089;-45
2021/01/12 09:25:38;;;;;;;7.88;7.07;;;8.00;83.70;;;;;;5104794;28;20429;-45
2021/01/12 09:28:11;;;;;;;7.95;6.88;;;8.10;84.20;;;;;;5104706;28;20040;-45
2021/01/12 09:30:38;;;;;;;8.23;6.80;;;8.00;83.70;;;;;;5104946;28;20107;-45
2021/01/12 09:33:04;;;;;;;8.57;7.20;;;8.00;83.70;;;;;;5104876;28;20036;-45
2021/01/12 09:35:31;;;;;;;7.40;6.47;;;8.00;83.70;;;;;;5104726;28;20054;-45
2021/01/12 09:38:01;;;;;;;5.22;4.63;;;8.10;83.80;;;;;;5104537;28;20040;-45
2021/01/12 09:40:27;;;;;;;8.43;6.63;;;8.00;83.70;;;;;;5104086;28;20051;-45
2021/01/12 09:42:53;;;;;;;9.15;7.13;;;8.00;83.70;;;;;;5091008;28;20037;-45
2021/01/12 09:45:19;;;;;;;8.07;6.40;;;8.00;83.70;;;;;;5084651;28;20024;-45
2021/01/12 09:47:46;;;;;;;7.35;6.30;;;8.10;84.50;;;;;;5102510;28;20032;-45
2021/01/12 09:50:13;;;;;;;8.93;6.60;;;8.10;83.70;;;;;;5104541;28;20111;-45
2021/01/12 09:52:39;;;;;;;8.55;6.60;;;8.10;83.80;;;;;;5104465;28;20028;-45
2021/01/12 09:55:05;;;;;;;8.02;6.72;;;8.10;83.80;;;;;;5103900;28;20036;-45
2021/01/12 09:57:36;;;;;;;6.90;6.03;;;8.00;83.70;;;;;;5083310;28;20052;-45
2021/01/12 10:00:08;;;;;;;6.75;6.05;;;8.10;83.70;;;;;;5082435;28;20028;-45
2021/01/12 10:02:35;;;;;;;8.48;6.53;;;8.00;83.70;;;;;;5084042;28;20028;-45
2021/01/12 10:05:01;;;;;;;9.05;6.97;;;8.10;83.70;;;;;;5083938;28;20025;-45
2021/01/12 10:07:27;;;;;;;8.37;6.47;;;8.00;83.70;;;;;;5083830;28;20043;-45
2021/01/12 10:09:53;;;;;;;7.40;6.63;;;8.00;83.70;;;;;;5083781;28;20262;-45
2021/01/12 10:12:19;;;;;;;7.63;6.13;;;8.00;83.70;;;;;;5093399;28;20095;-45
2021/01/12 10:14:46;;;;;;;7.78;6.70;;;8.00;83.70;;;;;;5096267;28;20020;-45
2021/01/12 10:17:12;;;;;;;9.88;7.38;;;8.10;83.80;;;;;;5083446;28;20541;-45
2021/01/12 10:19:38;;;;;;;8.68;7.10;;;8.10;83.80;;;;;;5083752;28;20040;-46
2021/01/12 10:22:04;;;;;;;7.47;6.28;;;8.10;83.80;;;;;;5083650;28;20025;-44
2021/01/12 10:24:30;;;;;;;11.68;7.25;;;8.00;83.80;;;;;;5083585;28;20060;-45
2021/01/12 10:26:57;;;;;;;7.47;5.82;;;8.00;83.70;;;;;;5083150;28;20066;-45
2021/01/12 10:29:26;;;;;;;5.73;5.10;;;8.10;83.80;;;;;;5083487;28;20096;-45
2021/01/12 10:31:52;;;;;;;7.80;6.22;;;8.00;83.70;;;;;;5083630;28;20257;-45
2021/01/12 10:34:20;;;;;;;7.55;5.78;;;8.10;83.80;;;;;;5083451;28;20442;-45
2021/01/12 10:36:50;;;;;;;7.30;6.38;;;8.00;83.80;;;;;;5083221;28;20029;-45
2021/01/12 10:39:16;;;;;;;7.63;5.75;;;8.00;83.80;;;;;;5083589;28;20032;-45
2021/01/12 10:41:43;;;;;;;8.70;6.82;;;8.10;83.80;;;;;;5083981;28;20084;-45
2021/01/12 10:44:09;;;;;;;7.95;6.53;;;8.10;83.80;;;;;;5083332;28;20043;-44
2021/01/12 10:46:35;;;;;;;7.75;6.47;;;8.00;84.50;;;;;;5085926;28;20038;-44
2021/01/12 10:49:02;;;;;;;7.80;6.55;;;8.10;83.80;;;;;;5103274;28;20032;-45
2021/01/12 10:51:28;;;;;;;7.97;6.43;;;8.00;83.80;;;;;;5091575;28;20151;-45
2021/01/12 10:53:54;;;;;;;7.28;6.47;;;8.00;83.80;;;;;;5083336;28;20032;-45
2021/01/12 10:56:20;;;;;;;8.30;6.60;;;8.00;83.80;;;;;;5082948;28;20049;-44
2021/01/12 10:58:46;;;;;;;8.07;7.03;;;8.00;83.80;;;;;;5082924;28;20027;-45
2021/01/12 11:01:16;;;;;;;7.43;6.38;;;8.00;83.80;;;;;;5082819;28;20016;-45
2021/01/12 11:03:44;;;;;;;9.80;7.15;;;8.00;83.80;;;;;;5082632;28;20040;-44
2021/01/12 11:06:10;;;;;;;8.98;6.57;;;8.00;83.80;;;;;;5082808;28;20024;-45
2021/01/12 11:08:37;;;;;;;8.07;6.85;;;8.00;83.80;;;;;;5082820;28;20063;-45
2021/01/12 11:11:03;;;;;;;8.67;6.87;;;8.00;83.80;;;;;;5091474;28;20031;-45
2021/01/12 11:13:29;;;;;;;7.57;6.55;;;8.00;83.80;;;;;;5084677;28;20037;-44
2021/01/12 11:15:59;;;;;;;7.22;6.20;;;8.00;83.80;;;;;;5083084;28;20025;-45
2021/01/12 11:18:25;;;;;;;7.10;5.82;;;8.00;83.80;;;;;;5082910;28;20025;-45
2021/01/12 11:20:53;;;;;;;8.10;6.68;;;8.00;83.80;;;;;;5082910;28;20035;-45
2021/01/12 11:23:19;;;;;;;7.85;6.40;;;8.00;83.80;;;;;;5082947;28;20035;-45
2021/01/12 11:25:46;;;;;;;7.57;6.32;;;8.00;83.80;;;;;;5082863;28;20120;-44
2021/01/12 11:28:12;;;;;;;9.15;6.55;;;8.00;83.80;;;;;;5082722;28;20040;-44
2021/01/12 11:30:38;;;;;;;9.05;7.28;;;8.00;83.80;;;;;;5082627;28;20094;-45
2021/01/12 11:33:09;;;;;;;8.90;6.35;;;8.00;83.90;;;;;;5082854;28;20032;-45
2021/01/12 11:35:35;;;;;;;7.85;6.60;;;8.00;83.80;;;;;;5081350;28;20032;-45
2021/01/12 11:38:02;;;;;;;8.65;6.40;;;8.00;83.90;;;;;;5082554;28;20078;-45
2021/01/12 11:40:28;;;;;;;7.93;6.63;;;8.00;83.90;;;;;;5083302;28;20021;-45
2021/01/12 11:42:54;;;;;;;7.30;6.45;;;8.00;83.90;;;;;;5082774;28;20088;-44
2021/01/12 11:45:20;;;;;;;8.52;6.80;;;8.00;83.90;;;;;;5082547;28;20025;-45
2021/01/12 11:47:47;;;;;;;8.20;6.60;;;8.00;83.90;;;;;;5082692;28;20123;-45
2021/01/12 11:50:13;;;;;;;6.53;5.72;;;8.00;83.90;;;;;;5082614;28;20036;-45
2021/01/12 11:52:39;;;;;;;8.15;6.78;;;8.00;84.10;;;;;;5082163;28;20044;-45
2021/01/12 11:55:06;;;;;;;8.27;6.72;;;8.00;83.80;;;;;;5082962;28;20024;-45
2021/01/12 11:57:32;;;;;;;7.68;6.80;;;8.00;83.80;;;;;;5083937;28;20055;-45
2021/01/12 11:59:58;;;;;;;9.13;6.88;;;8.00;83.80;;;;;;5082452;28;20024;-44
2021/01/12 12:02:25;;;;;;;7.75;6.60;;;8.00;83.90;;;;;;5082464;28;20086;-45
2021/01/12 12:04:51;;;;;;;7.85;6.20;;;8.00;83.80;;;;;;5082051;28;20025;-44
2021/01/12 12:07:17;;;;;;;8.23;6.47;;;8.00;83.80;;;;;;5082576;28;20036;-44
2021/01/12 12:09:43;;;;;;;6.95;5.85;;;8.00;83.90;;;;;;5082388;28;20051;-45
2021/01/12 12:12:09;;;;;;;8.88;6.38;;;8.00;83.90;;;;;;5090557;28;20040;-44
2021/01/12 12:14:36;;;;;;;7.17;5.97;;;8.00;83.90;;;;;;5102361;28;20135;-44
2021/01/12 12:17:02;;;;;;;6.93;6.10;;;8.00;83.90;;;;;;5103316;28;20048;-44
2021/01/12 12:19:30;;;;;;;7.07;6.15;;;8.00;83.90;;;;;;5085745;28;20083;-45
2021/01/12 12:21:57;;;;;;;5.72;5.18;;;8.00;83.90;;;;;;5086104;28;20017;-44
2021/01/12 12:24:24;;;;;;;7.60;5.85;;;8.00;83.90;;;;;;5088350;28;20032;-45
2021/01/12 12:26:51;;;;;;;6.55;5.60;;;8.00;83.90;;;;;;5084282;28;20052;-44
2021/01/12 12:29:17;;;;;;;6.75;5.63;;;8.00;83.90;;;;;;5085758;28;20021;-45
2021/01/12 12:31:43;;;;;;;7.03;5.70;;;8.00;83.90;;;;;;5085667;28;20086;-45
2021/01/12 12:34:10;;;;;;;6.72;5.60;;;8.00;83.90;;;;;;5085331;28;20025;-44
2021/01/12 12:36:36;;;;;;;7.55;5.70;;;8.00;83.90;;;;;;5085832;28;20025;-45
2021/01/12 12:39:03;;;;;;;6.55;5.55;;;8.00;83.90;;;;;;5085567;28;20028;-45
2021/01/12 12:41:32;;;;;;;7.40;5.85;;;8.00;83.90;;;;;;5086205;28;20054;-44
2021/01/12 12:43:58;;;;;;;7.35;5.72;;;8.00;83.90;;;;;;5085439;28;20024;-44
2021/01/12 12:46:25;;;;;;;7.53;6.05;;;8.00;84.00;;;;;;5085250;28;20043;-44
2021/01/12 12:48:51;;;;;;;6.70;5.33;;;8.00;83.90;;;;;;5085929;28;20041;-44
2021/01/12 12:51:17;;;;;;;7.22;5.85;;;8.00;83.90;;;;;;5092945;28;20024;-45
2021/01/12 12:53:46;;;;;;;6.57;5.88;;;8.00;83.90;;;;;;5085429;28;20092;-44
2021/01/12 12:56:13;;;;;;;7.07;5.63;;;8.00;84.00;;;;;;5084841;28;20046;-45
2021/01/12 12:58:39;;;;;;;7.43;5.70;;;8.00;84.00;;;;;;5085036;28;20056;-44
2021/01/12 13:01:06;;;;;;;7.03;5.93;;;8.00;84.00;;;;;;5085246;28;20028;-45
2021/01/12 13:03:32;;;;;;;7.75;5.70;;;8.00;84.00;;;;;;5085264;28;20084;-45
2021/01/12 13:06:01;;;;;;;7.23;6.10;;;8.00;84.00;;;;;;5084817;28;20032;-44